Time;durP1;ratioP1;P1;durP2;ratioP2;P2;SDS_P1;SDS_P2;PMS_P1;PMS_P2;Temp;Humidity;BMP_temperature;BMP_pressure;BME280_temperature;BME280_humidity;BME280_pressure;Samples;Min_cycle;Max_cycle;Signal;HPM_P1;HPM_P2
2023/06/04 00:01:06;;;;;;;3.08;1.40;;;11.40;99.90;;;;;;5071206;28;20048;-64
2023/06/04 00:03:33;;;;;;;3.50;1.50;;;11.40;99.90;;;;;;5072195;28;20043;-63
2023/06/04 00:05:59;;;;;;;3.58;1.20;;;11.30;99.90;;;;;;5071321;28;20048;-61
2023/06/04 00:08:25;;;;;;;5.07;1.48;;;11.30;99.90;;;;;;5068318;28;20040;-64
2023/06/04 00:10:51;;;;;;;3.42;1.15;;;11.20;99.90;;;;;;5073468;28;20036;-62
2023/06/04 00:13:17;;;;;;;2.38;1.42;;;11.20;99.90;;;;;;5071770;28;20471;-64
2023/06/04 00:15:42;;;;;;;3.10;1.35;;;11.20;99.90;;;;;;5071389;28;20039;-63
2023/06/04 00:18:10;;;;;;;4.32;1.38;;;11.10;99.90;;;;;;5073080;28;20055;-62
2023/06/04 00:20:37;;;;;;;2.85;1.60;;;11.10;99.90;;;;;;5071286;28;20040;-64
2023/06/04 00:23:03;;;;;;;2.55;1.60;;;11.00;99.90;;;;;;5070210;28;20055;-63
2023/06/04 00:25:28;;;;;;;2.83;1.15;;;11.00;99.90;;;;;;5070167;28;20036;-61
2023/06/04 00:27:54;;;;;;;2.70;1.33;;;10.90;99.90;;;;;;5070740;28;20044;-62
2023/06/04 00:30:19;;;;;;;1.50;1.23;;;10.90;99.90;;;;;;5071427;28;20025;-62
2023/06/04 00:32:46;;;;;;;5.07;1.60;;;10.90;99.90;;;;;;5070214;28;20165;-63
2023/06/04 00:35:12;;;;;;;3.97;1.30;;;10.90;99.90;;;;;;5069152;28;20052;-63
2023/06/04 00:37:38;;;;;;;6.07;2.05;;;10.80;99.90;;;;;;5070398;28;20144;-63
2023/06/04 00:40:05;;;;;;;2.70;1.58;;;10.80;99.90;;;;;;5071232;28;20135;-63
2023/06/04 00:42:31;;;;;;;2.90;1.60;;;10.80;99.90;;;;;;5067155;28;20048;-64
2023/06/04 00:44:58;;;;;;;4.70;2.10;;;10.70;99.90;;;;;;5071414;28;20121;-63
2023/06/04 00:47:23;;;;;;;3.70;1.70;;;10.70;99.90;;;;;;5067314;28;20094;-63
2023/06/04 00:49:49;;;;;;;3.53;1.50;;;10.70;99.90;;;;;;5070830;28;20131;-62
2023/06/04 00:52:16;;;;;;;7.05;1.95;;;10.70;99.90;;;;;;5067807;28;20134;-62
2023/06/04 00:54:42;;;;;;;2.10;1.65;;;10.70;99.90;;;;;;5068172;28;20078;-62
2023/06/04 00:57:08;;;;;;;3.85;1.83;;;10.60;99.90;;;;;;5067293;28;20157;-64
2023/06/04 00:59:38;;;;;;;2.90;1.73;;;10.60;99.90;;;;;;5067579;28;20119;-64
2023/06/04 01:02:09;;;;;;;4.38;1.88;;;10.60;99.90;;;;;;5070670;28;20036;-63
2023/06/04 01:04:54;;;;;;;3.97;2.38;;;10.50;99.90;;;;;;5070762;28;20105;-62
2023/06/04 01:07:19;;;;;;;5.45;1.92;;;10.40;99.90;;;;;;5069528;28;20048;-63
2023/06/04 01:09:45;;;;;;;4.57;1.98;;;10.40;99.90;;;;;;5054092;28;20391;-63
2023/06/04 01:12:12;;;;;;;6.00;2.20;;;10.40;99.90;;;;;;5069784;28;20119;-61
2023/06/04 01:14:37;;;;;;;7.05;2.10;;;10.30;99.90;;;;;;5068413;28;20041;-62
2023/06/04 01:17:09;;;;;;;3.10;1.92;;;10.30;99.90;;;;;;5069845;28;20054;-64
2023/06/04 01:20:04;;;;;;;7.07;2.10;;;10.30;99.90;;;;;;5070797;28;20055;-62
2023/06/04 01:22:36;;;;;;;4.05;2.28;;;10.20;99.90;;;;;;5069781;28;20053;-62
2023/06/04 01:25:04;;;;;;;5.57;2.10;;;10.20;99.90;;;;;;5066905;28;20052;-62
2023/06/04 01:27:32;;;;;;;3.10;2.08;;;10.20;99.90;;;;;;5071666;28;20044;-62
2023/06/04 01:29:58;;;;;;;6.00;2.13;;;10.20;99.90;;;;;;5053411;28;20056;-62
2023/06/04 01:32:24;;;;;;;3.50;1.92;;;10.10;99.90;;;;;;5103093;28;20119;-63
2023/06/04 01:34:50;;;;;;;3.58;2.20;;;10.10;99.90;;;;;;5069006;28;20040;-62
2023/06/04 01:37:16;;;;;;;5.07;2.20;;;10.10;99.90;;;;;;5067937;28;20443;-63
2023/06/04 01:39:42;;;;;;;4.95;2.22;;;10.00;99.90;;;;;;5066420;28;20048;-62
2023/06/04 01:42:08;;;;;;;5.55;2.42;;;9.90;99.90;;;;;;5070383;28;20059;-62
2023/06/04 01:44:34;;;;;;;6.13;2.28;;;9.90;99.90;;;;;;5068793;28;20036;-63
2023/06/04 01:47:00;;;;;;;4.32;2.28;;;9.80;99.90;;;;;;5072015;28;20052;-62
2023/06/04 01:49:26;;;;;;;5.38;2.45;;;9.80;99.90;;;;;;5070147;28;20040;-62
2023/06/04 01:51:51;;;;;;;6.40;2.78;;;9.80;99.90;;;;;;5069763;28;20364;-62
2023/06/04 01:54:17;;;;;;;7.38;2.70;;;9.70;99.90;;;;;;5070004;28;20048;-63
2023/06/04 01:56:43;;;;;;;5.07;2.50;;;9.70;99.90;;;;;;5070122;28;20040;-64
2023/06/04 01:59:11;;;;;;;5.15;2.50;;;9.60;99.90;;;;;;5068713;28;20127;-63
2023/06/04 02:01:40;;;;;;;6.53;2.70;;;9.60;99.90;;;;;;5052638;28;20052;-63
2023/06/04 02:04:06;;;;;;;5.03;2.80;;;9.50;99.90;;;;;;5065448;28;20430;-62
2023/06/04 02:06:31;;;;;;;6.70;2.72;;;9.50;99.90;;;;;;5070054;28;20102;-62
2023/06/04 02:08:57;;;;;;;4.10;2.88;;;9.50;99.90;;;;;;5052815;28;20098;-63
2023/06/04 02:11:23;;;;;;;4.65;3.08;;;9.40;99.90;;;;;;5053271;28;20115;-62
2023/06/04 02:13:48;;;;;;;4.82;2.92;;;9.40;99.90;;;;;;5052835;28;20483;-62
2023/06/04 02:16:14;;;;;;;5.18;2.92;;;9.40;99.90;;;;;;5071028;28;20365;-63
2023/06/04 02:18:40;;;;;;;5.95;3.13;;;9.30;99.90;;;;;;5068580;28;20045;-62
2023/06/04 02:21:06;;;;;;;5.85;2.97;;;9.40;99.90;;;;;;5070260;28;20115;-63
2023/06/04 02:23:32;;;;;;;7.65;3.03;;;9.30;99.90;;;;;;5070814;28;20108;-62
2023/06/04 02:25:57;;;;;;;6.45;3.15;;;9.30;99.90;;;;;;5071117;28;20063;-62
2023/06/04 02:28:23;;;;;;;7.10;3.63;;;9.30;99.90;;;;;;5065951;28;20048;-63
2023/06/04 02:30:49;;;;;;;7.57;3.38;;;9.30;99.90;;;;;;5068919;28;20039;-63
2023/06/04 02:33:15;;;;;;;6.30;3.42;;;9.30;99.90;;;;;;5070753;28;20058;-62
2023/06/04 02:35:41;;;;;;;5.60;3.72;;;9.30;99.90;;;;;;5066446;28;20040;-63
2023/06/04 02:38:07;;;;;;;9.13;3.45;;;9.30;99.90;;;;;;5066104;28;20059;-62
2023/06/04 02:40:32;;;;;;;11.38;4.28;;;9.30;99.90;;;;;;5067410;28;20083;-62
2023/06/04 02:42:58;;;;;;;7.75;4.00;;;9.30;99.90;;;;;;5068966;28;20036;-62
2023/06/04 02:45:24;;;;;;;8.15;3.80;;;9.40;99.90;;;;;;5066365;28;20115;-62
2023/06/04 02:47:50;;;;;;;9.88;3.80;;;9.40;99.90;;;;;;5067840;28;20553;-63
2023/06/04 02:50:16;;;;;;;9.30;4.03;;;9.40;99.90;;;;;;5068991;28;20044;-63
2023/06/04 02:52:42;;;;;;;8.95;3.85;;;9.40;99.90;;;;;;5067893;28;20052;-63
2023/06/04 02:55:14;;;;;;;9.40;4.35;;;9.50;99.90;;;;;;5065169;28;20419;-64
2023/06/04 02:57:42;;;;;;;8.75;4.57;;;9.50;99.90;;;;;;5102733;28;20036;-62
2023/06/04 03:00:12;;;;;;;9.02;4.63;;;9.50;99.90;;;;;;5048749;28;20514;-63
2023/06/04 03:02:47;;;;;;;9.77;4.68;;;9.50;99.90;;;;;;5068998;28;20045;-61
2023/06/04 03:05:15;;;;;;;8.60;4.30;;;9.50;99.90;;;;;;5067171;28;20040;-63
2023/06/04 03:07:43;;;;;;;7.03;4.13;;;9.60;99.90;;;;;;5067632;28;20055;-62
2023/06/04 03:10:10;;;;;;;9.80;4.53;;;9.60;99.90;;;;;;5069364;28;20040;-62
2023/06/04 03:12:36;;;;;;;12.25;5.68;;;9.60;99.90;;;;;;5067822;28;20110;-64
2023/06/04 03:15:02;;;;;;;8.60;4.35;;;9.60;99.90;;;;;;5067474;28;20037;-62
2023/06/04 03:17:28;;;;;;;14.00;4.80;;;9.60;99.90;;;;;;5066530;28;20111;-63
2023/06/04 03:19:55;;;;;;;8.68;4.75;;;9.60;99.90;;;;;;5051445;28;20123;-63
2023/06/04 03:22:21;;;;;;;8.02;4.45;;;9.60;99.90;;;;;;5067820;28;20044;-64
2023/06/04 03:24:47;;;;;;;9.65;4.55;;;9.70;99.90;;;;;;5067939;28;20043;-61
2023/06/04 03:27:13;;;;;;;10.52;4.65;;;9.70;99.90;;;;;;5068836;28;20555;-63
2023/06/04 03:29:39;;;;;;;9.73;4.65;;;9.70;99.90;;;;;;5068123;28;20097;-63
2023/06/04 03:32:05;;;;;;;9.32;4.43;;;9.70;99.90;;;;;;5047123;28;20061;-63
2023/06/04 03:34:31;;;;;;;12.85;4.97;;;9.70;99.90;;;;;;5051952;28;20036;-62
2023/06/04 03:36:57;;;;;;;9.82;4.68;;;9.60;99.90;;;;;;5072958;28;20515;-62
2023/06/04 03:39:23;;;;;;;8.27;4.30;;;9.70;99.90;;;;;;5073535;28;20072;-63
2023/06/04 03:41:49;;;;;;;8.55;4.50;;;9.70;99.90;;;;;;5072565;28;20078;-63
2023/06/04 03:44:16;;;;;;;13.00;4.75;;;9.70;99.90;;;;;;5070756;28;20048;-63
2023/06/04 03:46:42;;;;;;;8.25;4.20;;;9.70;99.90;;;;;;5072829;28;20076;-62
2023/06/04 03:49:13;;;;;;;8.77;4.43;;;9.70;99.90;;;;;;5073766;28;20036;-62
2023/06/04 03:51:38;;;;;;;9.15;4.45;;;9.80;99.90;;;;;;5071786;28;20110;-63
2023/06/04 03:54:04;;;;;;;12.75;5.07;;;9.80;99.90;;;;;;5071167;28;20088;-63
2023/06/04 03:56:30;;;;;;;9.32;4.30;;;9.80;99.90;;;;;;5072912;28;20028;-63
2023/06/04 03:58:56;;;;;;;7.30;4.03;;;9.90;99.90;;;;;;5072297;28;20098;-62
2023/06/04 04:01:23;;;;;;;11.30;4.80;;;9.90;99.90;;;;;;5073367;28;20037;-63
2023/06/04 04:03:50;;;;;;;11.00;4.90;;;9.90;99.90;;;;;;5071343;28;20278;-63
2023/06/04 04:06:16;;;;;;;9.68;4.22;;;10.00;99.90;;;;;;5071381;28;20059;-62
2023/06/04 04:08:43;;;;;;;10.30;4.43;;;10.00;99.90;;;;;;5071473;28;20040;-62
2023/06/04 04:11:09;;;;;;;11.50;5.65;;;10.10;99.90;;;;;;5072344;28;20490;-64
2023/06/04 04:13:35;;;;;;;12.32;4.65;;;10.10;99.90;;;;;;5070858;28;20524;-63
2023/06/04 04:16:01;;;;;;;12.23;4.97;;;10.10;99.90;;;;;;5071989;28;20115;-63
2023/06/04 04:18:27;;;;;;;11.98;5.20;;;10.10;99.90;;;;;;5071559;28;20121;-63
2023/06/04 04:20:52;;;;;;;9.93;4.13;;;10.20;99.90;;;;;;5070215;28;20036;-62
2023/06/04 04:23:18;;;;;;;9.27;4.50;;;10.30;99.90;;;;;;5073812;28;20036;-62
2023/06/04 04:25:44;;;;;;;12.63;5.18;;;10.30;99.90;;;;;;5071396;28;20614;-62
2023/06/04 04:28:10;;;;;;;12.77;4.47;;;10.40;99.90;;;;;;5069280;28;20057;-63
2023/06/04 04:30:36;;;;;;;7.95;4.15;;;10.40;99.90;;;;;;5101582;28;20055;-61
2023/06/04 04:33:04;;;;;;;10.07;4.05;;;10.50;99.90;;;;;;5071466;28;20068;-63
2023/06/04 04:35:32;;;;;;;8.85;4.35;;;10.60;99.90;;;;;;5065850;28;20050;-63
2023/06/04 04:38:04;;;;;;;8.60;4.13;;;10.70;99.90;;;;;;5070804;28;20041;-62
2023/06/04 04:40:30;;;;;;;12.07;4.60;;;10.70;99.90;;;;;;5071628;28;20547;-63
2023/06/04 04:42:56;;;;;;;9.85;4.75;;;10.80;99.90;;;;;;5069518;28;20098;-63
2023/06/04 04:45:22;;;;;;;10.48;4.70;;;10.90;99.90;;;;;;5072288;28;20036;-62
2023/06/04 04:47:48;;;;;;;11.93;4.95;;;10.90;99.90;;;;;;5068967;28;20041;-63
2023/06/04 04:50:13;;;;;;;14.55;5.63;;;11.00;99.90;;;;;;5068733;28;20067;-63
2023/06/04 04:52:39;;;;;;;14.10;5.40;;;11.10;99.90;;;;;;5069054;28;20052;-63
2023/06/04 04:55:05;;;;;;;11.95;5.10;;;11.10;99.90;;;;;;5071065;28;20044;-63
2023/06/04 04:57:31;;;;;;;10.35;4.80;;;11.20;99.90;;;;;;5067577;28;20033;-62
2023/06/04 04:59:56;;;;;;;12.02;4.97;;;11.30;99.90;;;;;;5069518;28;20040;-62
2023/06/04 05:02:22;;;;;;;10.68;4.72;;;11.30;99.90;;;;;;5070202;28;20362;-64
2023/06/04 05:04:48;;;;;;;16.20;5.07;;;11.40;99.90;;;;;;5054355;28;20125;-62
2023/06/04 05:07:13;;;;;;;10.63;4.93;;;11.50;99.90;;;;;;5070671;28;20137;-62
2023/06/04 05:09:40;;;;;;;12.38;4.60;;;11.60;99.90;;;;;;5067412;28;20131;-64
2023/06/04 05:12:06;;;;;;;11.65;4.65;;;11.70;99.90;;;;;;5054680;28;20119;-63
2023/06/04 05:14:35;;;;;;;9.35;4.93;;;11.80;99.90;;;;;;5070488;28;20039;-63
2023/06/04 05:17:00;;;;;;;10.52;4.45;;;11.90;99.90;;;;;;5070475;28;20044;-62
2023/06/04 05:19:26;;;;;;;9.85;4.68;;;12.00;99.90;;;;;;5072260;28;20501;-63
2023/06/04 05:21:52;;;;;;;13.63;4.53;;;12.10;99.90;;;;;;5071115;28;20119;-63
2023/06/04 05:24:17;;;;;;;12.02;4.75;;;12.20;99.90;;;;;;5071069;28;20124;-63
2023/06/04 05:26:43;;;;;;;10.60;4.57;;;12.20;99.90;;;;;;5067996;28;20162;-62
2023/06/04 05:29:08;;;;;;;10.43;4.30;;;12.30;99.90;;;;;;5051708;28;20558;-63
2023/06/04 05:31:34;;;;;;;13.02;4.55;;;12.40;99.90;;;;;;5070247;28;20538;-63
2023/06/04 05:34:01;;;;;;;10.70;4.18;;;12.50;99.90;;;;;;5053445;28;20190;-63
2023/06/04 05:36:27;;;;;;;10.93;4.25;;;12.60;99.90;;;;;;5070300;28;20053;-63
2023/06/04 05:38:57;;;;;;;8.50;4.03;;;12.70;99.90;;;;;;5070095;28;20036;-62
2023/06/04 05:41:27;;;;;;;8.23;4.22;;;12.80;99.90;;;;;;5053034;28;20037;-62
2023/06/04 05:43:53;;;;;;;9.35;4.40;;;12.90;99.90;;;;;;5066627;28;20053;-64
2023/06/04 05:46:19;;;;;;;9.90;4.20;;;13.00;99.90;;;;;;5070508;28;20044;-62
2023/06/04 05:48:45;;;;;;;8.50;3.78;;;13.10;99.90;;;;;;5102622;28;20040;-63
2023/06/04 05:51:13;;;;;;;9.18;3.92;;;13.30;99.90;;;;;;5052592;28;20414;-62
2023/06/04 05:53:38;;;;;;;8.85;4.40;;;13.40;99.90;;;;;;5052313;28;20045;-63
2023/06/04 05:56:04;;;;;;;11.07;3.90;;;13.50;99.90;;;;;;5071565;28;20402;-62
2023/06/04 05:58:32;;;;;;;7.38;3.92;;;13.60;99.90;;;;;;5065076;28;20040;-62
2023/06/04 06:00:58;;;;;;;11.02;3.95;;;13.60;99.90;;;;;;5070126;28;20040;-63
2023/06/04 06:03:23;;;;;;;11.07;4.70;;;13.70;99.90;;;;;;5069970;28;20127;-62
2023/06/04 06:05:49;;;;;;;9.75;4.10;;;13.80;99.90;;;;;;5069134;28;20052;-62
2023/06/04 06:08:15;;;;;;;8.57;4.15;;;13.90;99.90;;;;;;5065810;28;20041;-63
2023/06/04 06:10:40;;;;;;;11.77;4.03;;;14.10;99.90;;;;;;5069159;28;20052;-62
2023/06/04 06:13:06;;;;;;;8.65;3.90;;;14.20;99.90;;;;;;5070014;28;20399;-61
2023/06/04 06:15:32;;;;;;;9.63;3.60;;;14.20;99.90;;;;;;5051964;28;20057;-63
2023/06/04 06:17:58;;;;;;;9.38;3.80;;;14.40;99.90;;;;;;5068387;28;20483;-63
2023/06/04 06:20:24;;;;;;;6.45;4.03;;;14.40;99.90;;;;;;5066531;28;20033;-63
2023/06/04 06:22:50;;;;;;;7.40;3.60;;;14.60;99.90;;;;;;5069620;28;20060;-64
2023/06/04 06:25:15;;;;;;;9.38;3.58;;;14.70;99.90;;;;;;5100187;28;20044;-62
2023/06/04 06:27:41;;;;;;;7.25;2.90;;;14.80;99.90;;;;;;5070527;28;20501;-62
2023/06/04 06:30:08;;;;;;;8.85;3.38;;;14.90;99.90;;;;;;5065818;28;20028;-62
2023/06/04 06:32:34;;;;;;;9.10;3.28;;;15.10;99.90;;;;;;5068980;28;20048;-64
2023/06/04 06:35:00;;;;;;;9.05;3.30;;;15.20;99.90;;;;;;5067758;28;20052;-63
2023/06/04 06:37:26;;;;;;;4.93;3.28;;;15.30;99.90;;;;;;5069200;28;20391;-61
2023/06/04 06:39:52;;;;;;;8.95;3.00;;;15.40;99.90;;;;;;5065295;28;20053;-62
2023/06/04 06:42:18;;;;;;;5.63;3.00;;;15.50;99.90;;;;;;5067630;28;20032;-62
2023/06/04 06:44:47;;;;;;;7.43;3.13;;;15.60;99.90;;;;;;5069132;28;20414;-62
2023/06/04 06:47:15;;;;;;;6.30;2.90;;;15.80;99.90;;;;;;5066620;28;20120;-61
2023/06/04 06:49:41;;;;;;;6.07;2.78;;;15.80;99.90;;;;;;5067592;28;20040;-62
2023/06/04 06:52:07;;;;;;;8.95;3.13;;;15.90;99.90;;;;;;5067037;28;20052;-63
2023/06/04 06:54:32;;;;;;;8.80;3.00;;;16.10;99.90;;;;;;5070470;28;20395;-62
2023/06/04 06:56:58;;;;;;;5.30;2.58;;;16.10;99.90;;;;;;5068401;28;20045;-64
2023/06/04 06:59:25;;;;;;;8.43;3.28;;;16.20;99.90;;;;;;5068906;28;20036;-63
2023/06/04 07:01:50;;;;;;;9.48;3.05;;;16.30;99.90;;;;;;5069196;28;20056;-62
2023/06/04 07:04:17;;;;;;;6.82;3.03;;;16.40;99.90;;;;;;5051800;28;20096;-62
2023/06/04 07:06:43;;;;;;;6.43;3.20;;;16.50;99.90;;;;;;5068699;28;20052;-63
2023/06/04 07:09:09;;;;;;;9.15;3.38;;;16.60;99.90;;;;;;5068457;28;20040;-64
2023/06/04 07:11:35;;;;;;;4.57;2.40;;;16.80;99.90;;;;;;5067626;28;20040;-63
2023/06/04 07:14:04;;;;;;;6.70;2.88;;;16.80;99.90;;;;;;5069208;28;20368;-62
2023/06/04 07:16:30;;;;;;;6.18;2.60;;;16.80;99.90;;;;;;5069207;28;20036;-62
2023/06/04 07:18:55;;;;;;;8.00;3.00;;;17.00;99.90;;;;;;5068456;28;20132;-64
2023/06/04 07:21:23;;;;;;;8.27;3.10;;;17.10;99.90;;;;;;5067340;28;20047;-62
2023/06/04 07:23:50;;;;;;;6.60;2.72;;;17.20;99.90;;;;;;5050356;28;20064;-63
2023/06/04 07:26:17;;;;;;;8.70;2.63;;;17.30;99.90;;;;;;5068819;28;20088;-61
2023/06/04 07:28:43;;;;;;;9.63;3.10;;;17.30;99.90;;;;;;5067276;28;20116;-63
2023/06/04 07:31:09;;;;;;;5.80;2.22;;;17.50;99.90;;;;;;5067574;28;20486;-62
2023/06/04 07:33:42;;;;;;;8.07;2.47;;;17.60;99.90;;;;;;5068214;28;20365;-63
2023/06/04 07:36:15;;;;;;;6.35;2.15;;;17.70;99.90;;;;;;5069341;28;20058;-62
2023/06/04 07:38:40;;;;;;;;;;;17.80;99.90;;;;;;5069107;28;20041;-64
2023/06/04 07:41:06;;;;;;;5.85;1.92;;;18.00;99.90;;;;;;5068877;28;20283;-63
2023/06/04 07:43:37;;;;;;;6.57;2.33;;;18.00;99.90;;;;;;5101399;28;20036;-64
2023/06/04 07:46:06;;;;;;;5.05;1.80;;;18.20;99.90;;;;;;5067794;28;20048;-62
2023/06/04 07:48:31;;;;;;;5.13;2.05;;;18.30;99.90;;;;;;5049498;28;20059;-62
2023/06/04 07:51:02;;;;;;;4.78;1.73;;;18.40;99.90;;;;;;5068153;28;20495;-61
2023/06/04 07:53:28;;;;;;;4.90;1.90;;;18.50;99.90;;;;;;5069690;28;20041;-62
2023/06/04 07:55:54;;;;;;;6.25;1.90;;;18.70;99.90;;;;;;5068899;28;20041;-64
2023/06/04 07:58:20;;;;;;;5.05;1.65;;;18.80;99.90;;;;;;5068606;28;20391;-65
2023/06/04 08:00:46;;;;;;;4.40;1.52;;;18.90;99.90;;;;;;5065008;28;20047;-65
2023/06/04 08:03:12;;;;;;;4.03;1.50;;;19.10;99.90;;;;;;5067023;28;20547;-63
2023/06/04 08:05:38;;;;;;;5.05;1.75;;;19.20;99.90;;;;;;5050805;28;20053;-64
2023/06/04 08:08:03;;;;;;;6.00;1.83;;;19.30;99.90;;;;;;5068222;28;20040;-64
2023/06/04 08:10:30;;;;;;;5.70;1.40;;;19.30;99.90;;;;;;5094983;28;20127;-64
2023/06/04 08:12:56;;;;;;;3.05;1.48;;;19.50;99.90;;;;;;5065202;28;20043;-63
2023/06/04 08:15:22;;;;;;;4.78;1.75;;;19.50;99.60;;;;;;5067603;28;20399;-62
2023/06/04 08:17:48;;;;;;;5.82;1.85;;;19.60;99.30;;;;;;5069091;28;20036;-64
2023/06/04 08:20:13;;;;;;;3.47;1.40;;;19.70;99.40;;;;;;5067850;28;20044;-64
2023/06/04 08:22:40;;;;;;;4.85;1.75;;;19.80;98.70;;;;;;5069291;28;20459;-63
2023/06/04 08:25:06;;;;;;;4.75;1.50;;;19.80;98.50;;;;;;5068870;28;20079;-63
2023/06/04 08:27:32;;;;;;;4.53;2.08;;;20.00;98.40;;;;;;5068226;28;20041;-66
2023/06/04 08:29:57;;;;;;;4.70;1.45;;;20.20;98.30;;;;;;5069832;28;20051;-64
2023/06/04 08:32:26;;;;;;;3.85;1.40;;;20.40;98.10;;;;;;5064567;28;20036;-64
2023/06/04 08:34:52;;;;;;;4.35;1.50;;;20.50;97.20;;;;;;5069154;28;20075;-63
2023/06/04 08:37:19;;;;;;;6.55;1.40;;;20.50;95.50;;;;;;5071298;28;20044;-64
2023/06/04 08:39:45;;;;;;;3.25;1.27;;;20.60;95.10;;;;;;5053727;28;20059;-65
2023/06/04 08:42:21;;;;;;;5.93;1.40;;;20.60;93.70;;;;;;5070481;28;20032;-63
2023/06/04 08:44:52;;;;;;;5.63;1.33;;;20.60;93.90;;;;;;5070290;28;20041;-65
2023/06/04 08:47:19;;;;;;;4.43;1.50;;;20.80;94.60;;;;;;5071692;28;20106;-64
2023/06/04 08:49:49;;;;;;;4.40;1.25;;;21.00;95.00;;;;;;5071257;28;20045;-65
2023/06/04 08:52:15;;;;;;;8.25;2.33;;;21.20;94.80;;;;;;5071819;28;20127;-65
2023/06/04 08:54:42;;;;;;;7.10;1.70;;;21.20;94.40;;;;;;5071670;28;20407;-64
2023/06/04 08:57:09;;;;;;;5.82;1.90;;;21.10;93.80;;;;;;5070409;28;20045;-63
2023/06/04 08:59:36;;;;;;;6.18;1.85;;;21.20;94.80;;;;;;5071246;28;20032;-64
2023/06/04 09:02:04;;;;;;;4.13;1.42;;;21.00;93.50;;;;;;5068914;28;20434;-64
2023/06/04 09:04:30;;;;;;;3.22;1.30;;;21.10;93.40;;;;;;5071697;28;20415;-64
2023/06/04 09:07:02;;;;;;;3.13;0.88;;;21.30;93.00;;;;;;5070598;28;20131;-64
2023/06/04 09:09:29;;;;;;;5.35;1.60;;;21.40;92.40;;;;;;5071435;28;20040;-63
2023/06/04 09:11:57;;;;;;;2.97;1.38;;;21.50;91.90;;;;;;5070382;28;20044;-62
2023/06/04 09:14:23;;;;;;;4.72;1.60;;;21.60;90.70;;;;;;5070613;28;20045;-63
2023/06/04 09:16:54;;;;;;;3.58;1.48;;;21.60;90.70;;;;;;5070969;28;20039;-64
2023/06/04 09:19:20;;;;;;;5.15;1.52;;;21.70;91.10;;;;;;5069554;28;20051;-64
2023/06/04 09:21:54;;;;;;;4.63;1.92;;;21.90;91.50;;;;;;5069694;28;20041;-64
2023/06/04 09:24:22;;;;;;;4.75;1.45;;;22.10;90.00;;;;;;5070698;28;20115;-62
2023/06/04 09:26:48;;;;;;;4.35;1.52;;;22.10;89.40;;;;;;5053492;28;20047;-65
2023/06/04 09:29:15;;;;;;;4.32;1.40;;;22.10;88.30;;;;;;5054075;28;20063;-65
2023/06/04 09:31:41;;;;;;;3.17;1.20;;;22.10;88.30;;;;;;5069855;28;20044;-64
2023/06/04 09:34:07;;;;;;;5.63;1.10;;;22.30;88.30;;;;;;5068826;28;20131;-63
2023/06/04 09:36:35;;;;;;;2.83;1.30;;;22.40;87.60;;;;;;5071960;28;20505;-64
2023/06/04 09:39:03;;;;;;;4.00;1.20;;;22.30;86.40;;;;;;5069740;28;20154;-64
2023/06/04 09:41:29;;;;;;;3.33;1.55;;;22.40;87.70;;;;;;5069991;28;20131;-64
2023/06/04 09:44:05;;;;;;;3.15;1.25;;;22.60;87.80;;;;;;5071139;28;20123;-64
2023/06/04 09:46:31;;;;;;;6.13;1.85;;;22.80;86.40;;;;;;5070091;28;20048;-65
2023/06/04 09:49:04;;;;;;;3.05;1.30;;;22.70;83.90;;;;;;5070147;28;20807;-64
2023/06/04 09:51:31;;;;;;;5.47;1.27;;;22.70;82.20;;;;;;5069449;28;20036;-65
2023/06/04 09:53:59;;;;;;;5.13;1.83;;;22.70;83.90;;;;;;5068698;28;20052;-64
2023/06/04 09:56:26;;;;;;;5.32;1.27;;;22.80;81.60;;;;;;5070165;28;20044;-67
2023/06/04 09:59:02;;;;;;;4.82;1.20;;;22.90;81.40;;;;;;5069610;28;20052;-64
2023/06/04 10:01:29;;;;;;;5.38;1.23;;;23.10;81.40;;;;;;5049956;28;20137;-64
2023/06/04 10:04:02;;;;;;;3.22;1.30;;;23.30;82.60;;;;;;5065622;28;20036;-65
2023/06/04 10:06:33;;;;;;;4.95;1.25;;;23.30;80.10;;;;;;5053013;28;20036;-65
2023/06/04 10:09:04;;;;;;;4.65;1.50;;;23.20;80.70;;;;;;5051061;28;20395;-64
2023/06/04 10:11:36;;;;;;;2.00;1.10;;;23.40;80.50;;;;;;5069667;28;20044;-65
2023/06/04 10:14:10;;;;;;;4.35;1.35;;;23.50;80.00;;;;;;5068490;28;20120;-65
2023/06/04 10:16:38;;;;;;;3.83;1.10;;;23.70;78.60;;;;;;5069317;28;20037;-64
2023/06/04 10:19:08;;;;;;;3.55;1.13;;;23.80;78.00;;;;;;5051683;28;20040;-64
2023/06/04 10:21:37;;;;;;;3.65;1.45;;;23.90;78.10;;;;;;5068406;28;20047;-64
2023/06/04 10:24:03;;;;;;;3.58;1.20;;;24.00;77.30;;;;;;5065741;28;20057;-62
2023/06/04 10:26:30;;;;;;;3.17;1.50;;;24.00;76.50;;;;;;5068033;28;20048;-64
2023/06/04 10:28:57;;;;;;;4.78;1.10;;;24.00;76.20;;;;;;5070696;28;20120;-64
2023/06/04 10:31:23;;;;;;;1.50;1.00;;;23.90;76.90;;;;;;5066557;28;20529;-66
2023/06/04 10:33:54;;;;;;;2.88;1.23;;;24.00;76.60;;;;;;5066712;28;20037;-66
2023/06/04 10:36:21;;;;;;;2.70;1.40;;;24.10;75.20;;;;;;5070914;28;20036;-64
2023/06/04 10:38:55;;;;;;;4.22;1.40;;;24.00;75.10;;;;;;5068162;28;20048;-64
2023/06/04 10:41:22;;;;;;;2.05;1.10;;;24.10;74.20;;;;;;5066955;28;20040;-65
2023/06/04 10:43:49;;;;;;;4.72;1.45;;;24.20;75.80;;;;;;5069363;28;20051;-64
2023/06/04 10:46:19;;;;;;;2.78;1.20;;;24.30;75.90;;;;;;5068194;28;20040;-65
2023/06/04 10:48:52;;;;;;;3.35;1.20;;;24.40;74.80;;;;;;5069934;28;20111;-63
2023/06/04 10:51:34;;;;;;;5.28;1.25;;;24.40;73.40;;;;;;5069567;28;20678;-64
2023/06/04 10:54:01;;;;;;;;;;;24.10;68.40;;;;;;5068140;28;20056;-66
2023/06/04 10:56:32;;;;;;;2.15;0.90;;;24.10;71.50;;;;;;5067629;28;19999;-65
2023/06/04 10:58:58;;;;;;;2.80;1.08;;;24.30;74.10;;;;;;5069389;28;20045;-64
2023/06/04 11:01:28;;;;;;;4.97;1.20;;;24.50;73.20;;;;;;5069174;28;20050;-64
2023/06/04 11:03:55;;;;;;;1.33;1.05;;;24.10;70.00;;;;;;5103172;28;20098;-65
2023/06/04 11:06:22;;;;;;;3.63;1.00;;;24.20;71.20;;;;;;5069336;28;20058;-65
2023/06/04 11:08:48;;;;;;;3.60;1.40;;;24.20;71.20;;;;;;5069356;28;20463;-66
2023/06/04 11:11:15;;;;;;;2.05;0.95;;;24.30;72.30;;;;;;5066109;28;20063;-64
2023/06/04 11:13:44;;;;;;;3.10;1.50;;;24.30;71.60;;;;;;5069100;28;20040;-63
2023/06/04 11:16:16;;;;;;;2.67;1.20;;;24.10;69.80;;;;;;5069073;28;20038;-66
2023/06/04 11:18:41;;;;;;;2.15;1.10;;;24.10;67.60;;;;;;5069164;28;20048;-64
2023/06/04 11:21:07;;;;;;;1.75;1.00;;;23.90;70.10;;;;;;5066843;28;20047;-63
2023/06/04 11:23:33;;;;;;;1.95;1.35;;;24.00;70.10;;;;;;5069105;28;20041;-63
2023/06/04 11:25:59;;;;;;;2.80;1.17;;;24.00;70.70;;;;;;5066259;28;20048;-64
2023/06/04 11:28:25;;;;;;;2.53;1.20;;;23.90;68.80;;;;;;5067769;28;20040;-64
2023/06/04 11:30:58;;;;;;;1.95;1.10;;;24.00;68.60;;;;;;5070289;28;20032;-63
2023/06/04 11:33:24;;;;;;;2.42;1.35;;;24.10;68.70;;;;;;5051019;28;20049;-64
2023/06/04 11:35:50;;;;;;;1.80;1.00;;;24.00;68.20;;;;;;5067078;28;20483;-65
2023/06/04 11:38:15;;;;;;;2.95;0.93;;;23.90;69.40;;;;;;5069364;28;20438;-66
2023/06/04 11:40:43;;;;;;;2.40;1.40;;;23.90;69.00;;;;;;5068734;28;20048;-64
2023/06/04 11:43:11;;;;;;;2.45;1.10;;;23.90;69.00;;;;;;5069084;28;20047;-65
2023/06/04 11:45:37;;;;;;;3.85;0.90;;;23.90;68.80;;;;;;5067560;28;20036;-65
2023/06/04 11:48:05;;;;;;;1.75;1.10;;;23.90;67.90;;;;;;5068780;28;20059;-64
2023/06/04 11:50:31;;;;;;;5.07;1.30;;;23.80;67.50;;;;;;5068204;28;20064;-66
2023/06/04 11:52:57;;;;;;;2.65;1.10;;;23.70;67.90;;;;;;5065811;28;20064;-64
2023/06/04 11:55:24;;;;;;;2.70;1.30;;;23.60;68.20;;;;;;5069040;28;20518;-63
2023/06/04 11:57:50;;;;;;;2.30;1.27;;;23.50;68.40;;;;;;5070795;28;20055;-63
2023/06/04 12:00:19;;;;;;;1.90;0.90;;;23.50;67.10;;;;;;5071055;28;20560;-66
2023/06/04 12:02:57;;;;;;;3.15;1.10;;;23.30;66.30;;;;;;5071153;28;21714;-65
2023/06/04 12:05:29;;;;;;;3.47;1.20;;;23.10;67.80;;;;;;5071473;28;20044;-64
2023/06/04 12:08:09;;;;;;;2.55;1.10;;;23.10;67.70;;;;;;5071867;28;20041;-63
2023/06/04 12:10:42;;;;;;;2.10;1.00;;;23.10;68.70;;;;;;5070031;28;20029;-65
2023/06/04 12:13:09;;;;;;;3.17;1.20;;;22.90;68.60;;;;;;5073378;28;20055;-64
2023/06/04 12:15:35;;;;;;;4.00;1.55;;;22.80;68.50;;;;;;5071304;28;20044;-64
2023/06/04 12:18:00;;;;;;;2.45;1.00;;;22.60;68.70;;;;;;5072068;28;20486;-64
2023/06/04 12:20:41;;;;;;;3.58;1.30;;;22.70;69.40;;;;;;5069700;28;20364;-65
2023/06/04 12:23:07;;;;;;;1.83;1.10;;;22.80;69.20;;;;;;5069083;28;20046;-65
2023/06/04 12:25:34;;;;;;;3.67;1.10;;;22.70;69.50;;;;;;5071743;28;20045;-67
2023/06/04 12:28:01;;;;;;;8.48;1.30;;;22.60;68.50;;;;;;5073497;28;20127;-65
2023/06/04 12:30:40;;;;;;;1.25;0.98;;;22.50;68.50;;;;;;5071105;28;20036;-64
2023/06/04 12:33:05;;;;;;;4.20;1.33;;;22.50;69.10;;;;;;5072588;28;20072;-64
2023/06/04 12:35:31;;;;;;;3.80;0.98;;;22.50;69.40;;;;;;5072136;28;20113;-64
2023/06/04 12:37:57;;;;;;;2.97;1.10;;;22.50;70.30;;;;;;5071240;28;20036;-64
2023/06/04 12:40:22;;;;;;;2.67;1.00;;;22.50;69.40;;;;;;5072127;28;20115;-63
2023/06/04 12:42:50;;;;;;;3.03;1.00;;;22.60;69.90;;;;;;5070236;28;20457;-63
2023/06/04 12:45:17;;;;;;;3.28;1.33;;;22.70;69.70;;;;;;5070506;28;20044;-64
2023/06/04 12:47:42;;;;;;;4.07;1.02;;;22.60;68.90;;;;;;5072146;28;20560;-65